createdAt,value
2018-04-20T00:00:21.321Z,18.44
2018-04-20T00:01:01.894Z,18.41
2018-04-20T00:01:42.467Z,18.45
2018-04-20T00:02:23.025Z,18.4
2018-04-20T00:03:03.592Z,18.45
2018-04-20T00:03:44.157Z,18.45
2018-04-20T00:04:24.740Z,18.37
2018-04-20T00:05:05.288Z,18.26
2018-04-20T00:05:45.863Z,18.31
2018-04-20T00:06:26.442Z,18.26
2018-04-20T00:07:06.992Z,18.34
2018-04-20T00:07:47.553Z,18.35
2018-04-20T00:08:28.112Z,18.4
2018-04-20T00:09:08.711Z,18.34
2018-04-20T00:09:49.277Z,18.35
2018-04-20T00:10:29.850Z,18.26
2018-04-20T00:11:24.933Z,18.23
2018-04-20T00:12:05.499Z,18.29
2018-04-20T00:12:46.070Z,18.29
2018-04-20T00:13:26.659Z,18.37
2018-04-20T00:14:07.221Z,18.22
2018-04-20T00:14:47.782Z,18.25
2018-04-20T00:15:28.346Z,18.31
2018-04-20T00:16:08.927Z,18.15
2018-04-20T00:16:49.490Z,18.18
2018-04-20T00:17:30.064Z,18.16
2018-04-20T00:18:10.654Z,18.25
2018-04-20T00:18:51.232Z,18.16
2018-04-20T00:19:31.822Z,18.22
2018-04-20T00:20:12.403Z,18.22
2018-04-20T00:20:52.989Z,18.18
2018-04-20T00:21:33.572Z,18.22
2018-04-20T00:22:14.136Z,18.15
2018-04-20T00:22:54.744Z,18.16
2018-04-20T00:23:42.228Z,18.13
2018-04-20T00:24:22.785Z,18.2
2018-04-20T00:25:03.354Z,18.19
2018-04-20T00:25:43.928Z,18.13
2018-04-20T00:26:24.496Z,18.15
2018-04-20T00:27:05.061Z,18.16
2018-04-20T00:27:45.616Z,18.13
2018-04-20T00:28:26.170Z,18.11
2018-04-20T00:29:06.739Z,18.07
2018-04-20T00:29:47.293Z,18.15
2018-04-20T00:30:27.835Z,18.03
2018-04-20T00:31:08.392Z,18.08
2018-04-20T00:31:48.952Z,18.07
2018-04-20T00:32:29.535Z,18.04
2018-04-20T00:33:10.099Z,18.03
2018-04-20T00:33:50.678Z,18.1
2018-04-20T00:34:31.269Z,18.08
2018-04-20T00:35:11.828Z,18.05
2018-04-20T00:35:52.382Z,18.04
2018-04-20T00:36:32.957Z,17.98
2018-04-20T00:37:13.543Z,17.97
2018-04-20T00:37:54.133Z,18
2018-04-20T00:38:34.734Z,17.98
2018-04-20T00:39:15.290Z,17.98
2018-04-20T00:39:55.848Z,17.97
2018-04-20T00:40:36.416Z,17.94
2018-04-20T00:41:16.990Z,17.92
2018-04-20T00:41:57.583Z,17.92
2018-04-20T00:42:38.144Z,17.92
2018-04-20T00:43:18.699Z,18.01
2018-04-20T00:43:59.264Z,17.9
2018-04-20T00:44:39.842Z,17.89
2018-04-20T00:45:20.397Z,17.95
2018-04-20T00:46:01.162Z,17.92
2018-04-20T00:46:41.702Z,17.9
2018-04-20T00:47:22.281Z,17.85
2018-04-20T00:48:02.847Z,17.89
2018-04-20T00:48:43.413Z,17.82
2018-04-20T00:49:23.965Z,17.89
2018-04-20T00:50:04.509Z,17.86
2018-04-20T00:50:45.079Z,17.87
2018-04-20T00:51:25.667Z,17.78
2018-04-20T00:52:06.211Z,17.83
2018-04-20T00:52:46.775Z,17.76
2018-04-20T00:53:27.390Z,17.78
2018-04-20T00:54:07.961Z,17.83
2018-04-20T00:54:48.541Z,17.82
2018-04-20T00:55:29.119Z,17.78
2018-04-20T00:56:09.699Z,17.8
2018-04-20T00:56:50.305Z,17.72
2018-04-20T00:57:30.878Z,17.79
2018-04-20T00:58:11.445Z,17.7
2018-04-20T00:58:51.994Z,17.74
2018-04-20T00:59:32.561Z,17.76
2018-04-20T01:00:13.128Z,17.74
2018-04-20T01:00:53.728Z,17.76
2018-04-20T01:01:34.328Z,17.65
2018-04-20T01:02:14.876Z,17.7
2018-04-20T01:02:55.435Z,17.65
2018-04-20T01:03:35.989Z,17.59
2018-04-20T01:04:16.616Z,17.57
2018-04-20T01:04:57.495Z,17.57
2018-04-20T01:05:38.089Z,17.63
2018-04-20T01:06:19.842Z,17.54
2018-04-20T01:07:00.523Z,17.64
2018-04-20T01:07:41.529Z,17.57
2018-04-20T01:08:21.797Z,17.56
2018-04-20T01:09:02.413Z,17.64
2018-04-20T01:09:42.980Z,17.59
2018-04-20T01:10:23.646Z,17.54
2018-04-20T01:11:04.176Z,17.64
2018-04-20T01:11:45.283Z,17.57
2018-04-20T01:12:25.923Z,17.64
2018-04-20T01:13:06.626Z,17.56
2018-04-20T01:13:47.227Z,17.59
2018-04-20T01:14:27.793Z,17.59
2018-04-20T01:15:08.360Z,17.64
2018-04-20T01:15:48.922Z,17.64
2018-04-20T01:16:29.486Z,17.64
2018-04-20T01:17:10.051Z,17.64
2018-04-20T01:17:50.641Z,17.57
2018-04-20T01:18:31.186Z,17.65
2018-04-20T01:19:11.776Z,17.57
2018-04-20T01:19:52.334Z,17.54
2018-04-20T01:20:32.896Z,17.48
2018-04-20T01:21:13.454Z,17.56
2018-04-20T01:21:54.017Z,17.49
2018-04-20T01:22:34.591Z,17.54
2018-04-20T01:23:15.169Z,17.42
2018-04-20T01:23:55.758Z,17.51
2018-04-20T01:24:36.334Z,17.52
2018-04-20T01:25:16.906Z,17.48
2018-04-20T01:25:57.463Z,17.52
2018-04-20T01:26:38.033Z,17.51
2018-04-20T01:27:18.581Z,17.46
2018-04-20T01:27:59.146Z,17.49
2018-04-20T01:28:39.699Z,17.48
2018-04-20T01:29:20.265Z,17.44
2018-04-20T01:30:00.849Z,17.46
2018-04-20T01:30:41.422Z,17.44
2018-04-20T01:31:21.975Z,17.44
2018-04-20T01:32:02.546Z,17.52
2018-04-20T01:32:43.109Z,17.52
2018-04-20T01:33:23.661Z,17.46
2018-04-20T01:34:04.218Z,17.46
2018-04-20T01:34:44.782Z,17.46
2018-04-20T01:35:25.359Z,17.49
2018-04-20T01:36:05.915Z,17.49
2018-04-20T01:36:46.489Z,17.44
2018-04-20T01:37:27.080Z,17.42
2018-04-20T01:39:14.660Z,17.44
2018-04-20T01:39:55.225Z,17.41
2018-04-20T01:40:35.781Z,17.41
2018-04-20T01:41:16.340Z,17.34
2018-04-20T01:41:56.883Z,17.38
2018-04-20T01:42:37.467Z,17.31
2018-04-20T01:43:18.048Z,17.29
2018-04-20T01:43:58.677Z,17.33
2018-04-20T01:44:39.251Z,17.33
2018-04-20T01:45:19.825Z,17.34
2018-04-20T01:46:00.384Z,17.29
2018-04-20T01:46:40.942Z,17.3
2018-04-20T01:47:21.493Z,17.27
2018-04-20T01:48:02.041Z,17.23
2018-04-20T01:48:42.612Z,17.22
2018-04-20T01:49:23.157Z,17.23
2018-04-20T01:50:03.726Z,17.24
2018-04-20T01:50:44.322Z,17.19
2018-04-20T01:51:24.895Z,17.23
2018-04-20T01:52:05.494Z,17.23
2018-04-20T01:52:46.111Z,17.23
2018-04-20T01:53:26.638Z,17.24
2018-04-20T01:54:07.193Z,17.24
2018-04-20T01:54:47.746Z,17.22
2018-04-20T01:55:28.310Z,17.15
2018-04-20T01:56:08.858Z,17.23
2018-04-20T01:56:49.433Z,17.14
2018-04-20T01:57:29.991Z,17.22
2018-04-20T01:58:10.552Z,17.14
2018-04-20T01:58:51.109Z,17.2
2018-04-20T01:59:31.692Z,17.12
2018-04-20T02:00:12.244Z,17.09
2018-04-20T02:00:52.804Z,17.14
2018-04-20T02:01:33.363Z,17.12
2018-04-20T02:02:13.909Z,17.14
2018-04-20T02:02:54.500Z,17.12
2018-04-20T02:03:35.064Z,17.12
2018-04-20T02:04:15.624Z,17.11
2018-04-20T02:04:56.190Z,17.11
2018-04-20T02:05:36.734Z,17.12
2018-04-20T02:06:17.288Z,17.08
2018-04-20T02:06:57.889Z,17.14
2018-04-20T02:07:38.439Z,17.08
2018-04-20T02:08:19.021Z,17.08
2018-04-20T02:08:59.613Z,17.04
2018-04-20T02:09:40.177Z,17.02
2018-04-20T02:10:20.726Z,17.02
2018-04-20T02:11:01.287Z,17.04
2018-04-20T02:11:41.847Z,17.08
2018-04-20T02:12:22.401Z,17.04
2018-04-20T02:13:02.944Z,17.02
2018-04-20T02:13:43.535Z,17.05
2018-04-20T02:14:24.104Z,17.02
2018-04-20T02:15:04.699Z,17.02
2018-04-20T02:15:45.262Z,17.01
2018-04-20T02:16:25.813Z,17.04
2018-04-20T02:17:06.373Z,17.04
2018-04-20T02:17:46.939Z,17.04
2018-04-20T02:18:27.497Z,17.04
2018-04-20T02:19:08.080Z,17.04
2018-04-20T02:19:48.645Z,17.04
2018-04-20T02:20:29.194Z,17.02
2018-04-20T02:21:09.750Z,17.02
2018-04-20T02:21:50.299Z,17.01
2018-04-20T02:22:30.845Z,17.01
2018-04-20T02:23:11.413Z,16.99
2018-04-20T02:23:51.965Z,16.99
2018-04-20T02:24:32.613Z,16.94
2018-04-20T02:25:13.708Z,16.96
2018-04-20T02:25:54.438Z,16.96
2018-04-20T02:26:34.977Z,16.93
2018-04-20T02:27:15.529Z,16.89
2018-04-20T02:27:56.090Z,16.87
2018-04-20T02:28:36.629Z,16.87
2018-04-20T02:29:17.199Z,16.9
2018-04-20T02:29:57.763Z,16.84
2018-04-20T02:30:38.318Z,16.84
2018-04-20T02:31:18.901Z,16.87
2018-04-20T02:31:59.456Z,16.87
2018-04-20T02:32:40.103Z,16.75
2018-04-20T02:33:20.663Z,16.87
2018-04-20T02:34:01.226Z,16.81
2018-04-20T02:34:41.777Z,16.84
2018-04-20T02:35:22.350Z,16.81
2018-04-20T02:36:02.970Z,16.84
2018-04-20T02:36:43.527Z,16.86
2018-04-20T02:37:24.092Z,16.81
2018-04-20T02:38:04.734Z,16.9
2018-04-20T02:38:45.316Z,16.81
2018-04-20T02:39:25.889Z,16.84
2018-04-20T02:40:06.446Z,16.78
2018-04-20T02:40:47.040Z,16.9
2018-04-20T02:41:27.620Z,16.81
2018-04-20T02:42:08.138Z,16.83
2018-04-20T02:42:48.692Z,16.84
2018-04-20T02:43:29.241Z,16.79
2018-04-20T02:44:09.820Z,16.83
2018-04-20T02:44:50.359Z,16.87
2018-04-20T02:45:30.912Z,16.78
2018-04-20T02:46:11.466Z,16.87
2018-04-20T02:46:52.056Z,16.86
2018-04-20T02:47:32.612Z,16.79
2018-04-20T02:48:13.155Z,16.87
2018-04-20T02:48:53.736Z,16.81
2018-04-20T02:49:34.309Z,16.79
2018-04-20T02:50:14.882Z,16.79
2018-04-20T02:50:55.451Z,16.71
2018-04-20T02:51:36.033Z,16.75
2018-04-20T02:52:16.601Z,16.79
2018-04-20T02:52:57.145Z,16.74
2018-04-20T02:53:37.704Z,16.72
2018-04-20T02:54:18.260Z,16.75
2018-04-20T02:54:58.803Z,16.66
2018-04-20T02:55:39.386Z,16.81
2018-04-20T02:56:19.958Z,16.68
2018-04-20T02:57:00.531Z,16.68
2018-04-20T02:57:41.112Z,16.65
2018-04-20T02:58:21.673Z,16.71
2018-04-20T02:59:02.239Z,16.66
2018-04-20T02:59:42.830Z,16.81
2018-04-20T03:00:23.371Z,16.71
2018-04-20T03:01:03.946Z,16.71
2018-04-20T03:01:44.511Z,16.72
2018-04-20T03:02:25.062Z,16.74
2018-04-20T03:03:05.619Z,16.65
2018-04-20T03:03:46.169Z,16.66
2018-04-20T03:04:26.719Z,16.72
2018-04-20T03:05:07.276Z,16.69
2018-04-20T03:05:47.850Z,16.71
2018-04-20T03:06:28.399Z,16.6
2018-04-20T03:07:08.975Z,16.69
2018-04-20T03:07:49.559Z,16.65
2018-04-20T03:08:30.116Z,16.64
2018-04-20T03:09:10.680Z,16.66
2018-04-20T03:09:51.287Z,16.6
2018-04-20T03:10:31.882Z,16.68
2018-04-20T03:11:12.418Z,16.64
2018-04-20T03:11:52.991Z,16.61
2018-04-20T03:12:33.567Z,16.57
2018-04-20T03:13:14.155Z,16.58
2018-04-20T03:13:54.703Z,16.64
2018-04-20T03:14:35.254Z,16.54
2018-04-20T03:15:15.812Z,16.64
2018-04-20T03:15:56.360Z,16.56
2018-04-20T03:16:36.914Z,16.54
2018-04-20T03:17:17.481Z,16.54
2018-04-20T03:17:58.118Z,16.56
2018-04-20T03:18:38.672Z,16.54
2018-04-20T03:19:19.229Z,16.53
2018-04-20T03:19:59.804Z,16.54
2018-04-20T03:20:40.357Z,16.57
2018-04-20T03:21:20.892Z,16.57
2018-04-20T03:22:01.442Z,16.5
2018-04-20T03:22:42.017Z,16.47
2018-04-20T03:23:22.586Z,16.47
2018-04-20T03:24:03.124Z,16.42
2018-04-20T03:24:43.732Z,16.5
2018-04-20T03:25:24.294Z,16.47
2018-04-20T03:26:04.859Z,16.41
2018-04-20T03:26:45.402Z,16.49
2018-04-20T03:27:25.986Z,16.46
2018-04-20T03:28:06.552Z,16.46
2018-04-20T03:28:47.111Z,16.43
2018-04-20T03:29:27.686Z,16.46
2018-04-20T03:30:08.227Z,16.41
2018-04-20T03:30:48.754Z,16.38
2018-04-20T03:31:29.345Z,16.49
2018-04-20T03:32:09.929Z,16.39
2018-04-20T03:32:50.488Z,16.33
2018-04-20T03:33:31.052Z,16.42
2018-04-20T03:34:11.608Z,16.36
2018-04-20T03:34:52.184Z,16.41
2018-04-20T03:35:32.730Z,16.35
2018-04-20T03:36:13.278Z,16.32
2018-04-20T03:36:53.838Z,16.36
2018-04-20T03:37:34.401Z,16.41
2018-04-20T03:38:14.958Z,16.36
2018-04-20T03:38:55.573Z,16.35
2018-04-20T03:39:36.139Z,16.36
2018-04-20T03:40:16.694Z,16.36
2018-04-20T03:40:57.261Z,16.31
2018-04-20T03:41:37.861Z,16.35
2018-04-20T03:42:18.420Z,16.32
2018-04-20T03:42:58.977Z,16.32
2018-04-20T03:43:39.518Z,16.38
2018-04-20T03:44:20.098Z,16.31
2018-04-20T03:45:00.650Z,16.38
2018-04-20T03:45:41.217Z,16.36
2018-04-20T03:46:21.778Z,16.31
2018-04-20T03:47:02.346Z,16.32
2018-04-20T03:47:42.899Z,16.36
2018-04-20T03:48:23.504Z,16.36
2018-04-20T03:49:04.131Z,16.31
2018-04-20T03:49:44.694Z,16.38
2018-04-20T03:50:25.255Z,16.31
2018-04-20T03:51:05.806Z,16.33
2018-04-20T03:51:46.368Z,16.31
2018-04-20T03:52:26.918Z,16.29
2018-04-20T03:53:07.470Z,16.26
2018-04-20T03:53:48.034Z,16.26
2018-04-20T03:54:28.587Z,16.33
2018-04-20T03:55:09.138Z,16.29
2018-04-20T03:55:49.690Z,16.26
2018-04-20T03:56:30.286Z,16.31
2018-04-20T03:57:10.827Z,16.23
2018-04-20T03:57:51.389Z,16.26
2018-04-20T03:58:31.932Z,16.2
2018-04-20T03:59:12.513Z,16.24
2018-04-20T03:59:53.094Z,16.28
2018-04-20T04:00:33.645Z,16.24
2018-04-20T04:01:14.201Z,16.17
2018-04-20T04:01:54.756Z,16.21
2018-04-20T04:02:35.343Z,16.21
2018-04-20T04:03:15.903Z,16.21
2018-04-20T04:03:56.460Z,16.26
2018-04-20T04:04:37.025Z,16.2
2018-04-20T04:05:17.570Z,16.09
2018-04-20T04:05:58.133Z,16.2
2018-04-20T04:06:38.696Z,16.15
2018-04-20T04:07:19.281Z,16.12
2018-04-20T04:07:59.830Z,16.15
2018-04-20T04:08:40.411Z,16.2
2018-04-20T04:09:20.999Z,16.13
2018-04-20T04:10:01.563Z,16.13
2018-04-20T04:10:42.194Z,16.15
2018-04-20T04:11:22.720Z,16.09
2018-04-20T04:12:03.280Z,16.1
2018-04-20T04:12:43.840Z,16.13
2018-04-20T04:13:24.377Z,16.05
2018-04-20T04:14:04.939Z,16.1
2018-04-20T04:14:45.491Z,16.15
2018-04-20T04:15:26.049Z,16.17
2018-04-20T04:16:06.602Z,16.1
2018-04-20T04:16:47.155Z,16.16
2018-04-20T04:17:27.716Z,16.09
2018-04-20T04:18:08.259Z,16.1
2018-04-20T04:18:48.819Z,16.04
2018-04-20T04:19:29.366Z,16.13
2018-04-20T04:20:09.923Z,16.1
2018-04-20T04:20:50.503Z,16.16
2018-04-20T04:21:31.099Z,16.24
2018-04-20T04:22:11.655Z,16.23
2018-04-20T04:22:52.210Z,16.33
2018-04-20T04:23:32.761Z,16.32
2018-04-20T04:24:13.334Z,16.33
2018-04-20T04:24:53.901Z,16.35
2018-04-20T04:25:34.469Z,16.39
2018-04-20T04:27:21.961Z,16.41
2018-04-20T04:28:02.547Z,16.53
2018-04-20T04:28:43.109Z,16.51
2018-04-20T04:29:23.671Z,16.47
2018-04-20T04:30:04.244Z,16.51
2018-04-20T04:30:44.803Z,16.57
2018-04-20T04:31:25.353Z,16.6
2018-04-20T04:32:05.922Z,16.54
2018-04-20T04:32:46.489Z,16.56
2018-04-20T04:33:27.050Z,16.56
2018-04-20T04:34:07.643Z,16.58
2018-04-20T04:34:48.233Z,16.58
2018-04-20T04:35:28.830Z,16.65
2018-04-20T04:36:09.384Z,16.71
2018-04-20T04:36:50.062Z,16.74
2018-04-20T04:37:30.613Z,16.65
2018-04-20T04:38:11.419Z,16.79
2018-04-20T04:38:52.000Z,16.84
2018-04-20T04:39:32.551Z,16.91
2018-04-20T04:40:13.140Z,16.97
2018-04-20T04:40:53.692Z,17.01
2018-04-20T04:41:34.282Z,17.01
2018-04-20T04:42:14.867Z,17.06
2018-04-20T04:42:55.408Z,17.05
2018-04-20T04:43:35.978Z,17.05
2018-04-20T04:44:16.615Z,17.16
2018-04-20T04:44:57.164Z,17.2
2018-04-20T04:45:37.723Z,17.16
2018-04-20T04:46:18.328Z,17.16
2018-04-20T04:46:58.934Z,17.19
2018-04-20T04:47:39.595Z,17.23
2018-04-20T04:48:20.329Z,17.16
2018-04-20T04:49:01.132Z,17.3
2018-04-20T04:49:42.066Z,17.29
2018-04-20T04:50:22.649Z,17.24
2018-04-20T04:51:03.195Z,17.27
2018-04-20T04:51:43.758Z,17.36
2018-04-20T04:52:24.376Z,17.34
2018-04-20T04:53:04.954Z,17.38
2018-04-20T04:53:45.510Z,17.33
2018-04-20T04:54:26.054Z,17.36
2018-04-20T04:55:06.654Z,17.34
2018-04-20T04:55:47.225Z,17.34
2018-04-20T04:56:27.773Z,17.42
2018-04-20T04:57:08.345Z,17.51
2018-04-20T04:57:48.906Z,17.46
2018-04-20T04:58:29.449Z,17.42
2018-04-20T04:59:09.988Z,17.49
2018-04-20T04:59:51.232Z,17.46
2018-04-20T05:00:31.985Z,17.54
2018-04-20T05:01:12.540Z,17.63
2018-04-20T05:01:53.131Z,17.65
2018-04-20T05:02:33.708Z,17.59
2018-04-20T05:03:14.276Z,17.54
2018-04-20T05:03:54.846Z,17.67
2018-04-20T05:04:35.398Z,17.59
2018-04-20T05:05:16.044Z,17.64
2018-04-20T05:05:56.590Z,17.56
2018-04-20T05:06:37.168Z,17.67
2018-04-20T05:07:17.765Z,17.56
2018-04-20T05:07:58.292Z,17.59
2018-04-20T05:08:38.851Z,17.65
2018-04-20T05:09:19.438Z,17.64
2018-04-20T05:10:00.017Z,17.7
2018-04-20T05:10:40.563Z,17.64
2018-04-20T05:11:21.117Z,17.68
2018-04-20T05:12:01.683Z,17.68
2018-04-20T05:12:42.288Z,17.65
2018-04-20T05:13:22.898Z,17.76
2018-04-20T05:14:03.550Z,17.63
2018-04-20T05:14:44.103Z,17.68
2018-04-20T05:15:24.664Z,17.59
2018-04-20T05:16:05.289Z,17.64
2018-04-20T05:16:45.797Z,17.46
2018-04-20T05:17:26.359Z,17.51
2018-04-20T05:18:06.917Z,17.51
2018-04-20T05:18:47.483Z,17.51
2018-04-20T05:19:28.048Z,17.49
2018-04-20T05:20:08.655Z,17.45
2018-04-20T05:20:49.199Z,17.51
2018-04-20T05:21:29.786Z,17.46
2018-04-20T05:22:10.310Z,17.42
2018-04-20T05:22:50.899Z,17.49
2018-04-20T05:23:31.478Z,17.48
2018-04-20T05:24:12.005Z,17.42
2018-04-20T05:24:52.578Z,17.46
2018-04-20T05:25:33.210Z,17.42
2018-04-20T05:26:13.764Z,17.45
2018-04-20T05:26:54.434Z,17.45
2018-04-20T05:27:35.015Z,17.54
2018-04-20T05:28:15.645Z,17.48
2018-04-20T05:28:56.294Z,17.45
2018-04-20T05:29:36.844Z,17.46
2018-04-20T05:30:17.406Z,17.48
2018-04-20T05:30:57.971Z,17.48
2018-04-20T05:31:38.622Z,17.44
2018-04-20T05:32:19.225Z,17.49
2018-04-20T05:32:59.825Z,17.45
2018-04-20T05:33:40.383Z,17.41
2018-04-20T05:34:20.942Z,17.49
2018-04-20T05:35:01.504Z,17.48
2018-04-20T05:35:42.072Z,17.45
2018-04-20T05:36:23.722Z,17.44
2018-04-20T05:37:05.704Z,17.46
2018-04-20T05:37:48.591Z,17.48
2018-04-20T05:38:29.341Z,17.45
2018-04-20T05:39:09.909Z,17.46
2018-04-20T05:39:50.465Z,17.49
2018-04-20T05:40:31.052Z,17.48
2018-04-20T05:41:11.608Z,17.59
2018-04-20T05:41:52.188Z,17.56
2018-04-20T05:42:32.779Z,17.59
2018-04-20T05:43:13.302Z,17.59
2018-04-20T05:43:54.177Z,17.67
2018-04-20T05:44:34.754Z,17.64
2018-04-20T05:45:15.327Z,17.54
2018-04-20T05:45:55.971Z,17.57
2018-04-20T05:46:36.429Z,17.63
2018-04-20T05:47:17.063Z,17.6
2018-04-20T05:47:58.265Z,17.57
2018-04-20T05:48:38.888Z,17.63
2018-04-20T05:49:19.512Z,17.65
2018-04-20T05:50:00.104Z,17.63
2018-04-20T05:50:40.694Z,17.63
2018-04-20T05:51:21.283Z,17.68
2018-04-20T05:52:01.830Z,17.57
2018-04-20T05:52:42.528Z,17.6
2018-04-20T05:53:23.867Z,17.48
2018-04-20T05:54:04.445Z,17.51
2018-04-20T05:54:44.991Z,17.64
2018-04-20T05:55:25.586Z,17.64
2018-04-20T05:56:06.148Z,17.65
2018-04-20T05:56:46.690Z,17.64
2018-04-20T05:57:27.247Z,17.64
2018-04-20T05:58:07.800Z,17.49
2018-04-20T05:58:48.363Z,17.52
2018-04-20T05:59:28.972Z,17.42
2018-04-20T06:00:09.528Z,17.38
2018-04-20T06:00:50.095Z,17.31
2018-04-20T06:01:30.694Z,17.38
2018-04-20T06:02:11.539Z,17.3
2018-04-20T06:02:52.041Z,17.3
2018-04-20T06:03:32.637Z,17.34
2018-04-20T06:04:13.294Z,17.3
2018-04-20T06:04:54.131Z,17.33
2018-04-20T06:05:34.695Z,17.36
2018-04-20T06:06:15.231Z,17.39
2018-04-20T06:06:55.780Z,17.39
2018-04-20T06:07:36.325Z,17.44
2018-04-20T06:08:16.887Z,17.41
2018-04-20T06:08:57.484Z,17.44
2018-04-20T06:09:38.058Z,17.49
2018-04-20T06:10:18.678Z,17.45
2018-04-20T06:10:59.243Z,17.45
2018-04-20T06:11:39.789Z,17.44
2018-04-20T06:12:20.362Z,17.44
2018-04-20T06:13:00.915Z,17.6
2018-04-20T06:13:41.475Z,17.63
2018-04-20T06:14:22.037Z,17.67
2018-04-20T06:15:02.603Z,17.68
2018-04-20T06:15:43.167Z,17.7
2018-04-20T06:16:23.744Z,17.78
2018-04-20T06:17:04.302Z,17.72
2018-04-20T06:17:44.943Z,17.9
2018-04-20T06:18:25.417Z,17.86
2018-04-20T06:19:05.972Z,17.89
2018-04-20T06:19:46.531Z,17.95
2018-04-20T06:20:27.102Z,18.1
2018-04-20T06:21:07.683Z,18.08
2018-04-20T06:21:48.310Z,18.23
2018-04-20T06:22:28.930Z,18.23
2018-04-20T06:23:09.477Z,18.33
2018-04-20T06:23:50.033Z,18.41
2018-04-20T06:24:30.617Z,18.44
2018-04-20T06:25:11.165Z,18.5
2018-04-20T06:25:51.703Z,18.58
2018-04-20T06:26:32.254Z,18.66
2018-04-20T06:27:12.823Z,18.73
2018-04-20T06:27:53.611Z,18.84
2018-04-20T06:28:34.186Z,18.9
2018-04-20T06:29:14.738Z,19.04
2018-04-20T06:29:55.313Z,19.14
2018-04-20T06:30:35.867Z,19.22
2018-04-20T06:31:16.509Z,19.26
2018-04-20T06:31:58.002Z,19.36
2018-04-20T06:32:38.600Z,19.51
2018-04-20T06:33:19.191Z,19.59
2018-04-20T06:33:59.767Z,19.66
2018-04-20T06:34:40.377Z,19.74
2018-04-20T06:35:20.930Z,19.95
2018-04-20T06:36:01.487Z,20.02
2018-04-20T06:36:42.044Z,20.19
2018-04-20T06:37:22.598Z,20.36
2018-04-20T06:38:03.167Z,20.41
2018-04-20T06:38:43.751Z,20.51
2018-04-20T06:39:24.317Z,20.55
2018-04-20T06:40:04.895Z,20.55
2018-04-20T06:40:45.461Z,20.65
2018-04-20T06:41:26.021Z,20.63
2018-04-20T06:42:06.603Z,20.7
2018-04-20T06:42:47.184Z,20.75
2018-04-20T06:43:27.737Z,20.85
2018-04-20T06:44:08.320Z,20.9
2018-04-20T06:44:48.887Z,21
2018-04-20T06:45:29.441Z,21.12
2018-04-20T06:46:10.016Z,21.15
2018-04-20T06:46:50.579Z,21.29
2018-04-20T06:47:31.140Z,21.37
2018-04-20T06:48:11.705Z,21.45
2018-04-20T06:48:52.264Z,21.48
2018-04-20T06:49:32.844Z,21.55
2018-04-20T06:50:13.444Z,21.57
2018-04-20T06:50:54.022Z,21.67
2018-04-20T06:51:34.601Z,21.73
2018-04-20T06:52:15.208Z,21.61
2018-04-20T06:52:55.879Z,21.75
2018-04-20T06:53:36.456Z,21.83
2018-04-20T06:54:17.018Z,21.88
2018-04-20T06:54:57.752Z,21.85
2018-04-20T06:55:38.380Z,21.85
2018-04-20T06:56:19.038Z,21.89
2018-04-20T06:56:59.590Z,21.96
2018-04-20T06:57:40.157Z,21.96
2018-04-20T06:58:20.727Z,21.91
2018-04-20T06:59:01.300Z,22.08
2018-04-20T06:59:41.886Z,22.15
2018-04-20T07:00:22.452Z,22.14
2018-04-20T07:01:03.027Z,22.13
2018-04-20T07:01:43.715Z,22.17
2018-04-20T07:02:24.287Z,22.29
2018-04-20T07:03:04.852Z,22.2
2018-04-20T07:03:45.499Z,22.26
2018-04-20T07:04:26.081Z,22.33
2018-04-20T07:05:06.689Z,22.39
2018-04-20T07:05:47.253Z,22.45
2018-04-20T07:06:27.806Z,22.5
2018-04-20T07:07:08.410Z,22.6
2018-04-20T07:07:48.988Z,22.59
2018-04-20T07:08:29.652Z,22.59
2018-04-20T07:09:10.231Z,22.69
2018-04-20T07:09:50.836Z,22.85
2018-04-20T07:10:31.415Z,22.81
2018-04-20T07:11:11.969Z,22.9
2018-04-20T07:11:52.562Z,22.84
2018-04-20T07:12:33.208Z,22.88
2018-04-20T07:13:13.811Z,22.94
2018-04-20T07:13:54.373Z,22.93
2018-04-20T07:14:34.932Z,23.03
2018-04-20T07:15:15.498Z,23.05
2018-04-20T07:15:56.160Z,23.15
2018-04-20T07:16:36.761Z,23.15
2018-04-20T07:17:17.375Z,23.27
2018-04-20T07:17:57.926Z,23.31
2018-04-20T07:18:38.583Z,23.37
2018-04-20T07:19:19.174Z,23.31
2018-04-20T07:19:59.734Z,23.37
2018-04-20T07:20:40.295Z,23.47
2018-04-20T07:21:20.871Z,23.46
2018-04-20T07:22:01.461Z,23.5
2018-04-20T07:22:42.051Z,23.55
2018-04-20T07:23:22.804Z,23.5
2018-04-20T07:24:03.349Z,23.5
2018-04-20T07:24:43.904Z,23.43
2018-04-20T07:25:24.532Z,23.48
2018-04-20T07:26:05.150Z,23.54
2018-04-20T07:26:45.737Z,23.47
2018-04-20T07:27:26.306Z,23.47
2018-04-20T07:28:06.871Z,23.55
2018-04-20T07:28:47.463Z,23.61
2018-04-20T07:29:28.038Z,23.56
2018-04-20T07:30:08.661Z,23.54
2018-04-20T07:30:49.270Z,23.62
2018-04-20T07:31:29.873Z,23.66
2018-04-20T07:32:10.455Z,23.65
2018-04-20T07:32:51.037Z,23.76
2018-04-20T07:33:31.600Z,23.78
2018-04-20T07:34:12.200Z,23.8
2018-04-20T07:34:52.803Z,23.84
2018-04-20T07:35:33.386Z,23.95
2018-04-20T07:36:13.968Z,23.96
2018-04-20T07:36:54.534Z,24.13
2018-04-20T07:37:35.098Z,24.11
2018-04-20T07:38:15.688Z,24.17
2018-04-20T07:38:56.259Z,24.17
2018-04-20T07:39:36.842Z,24.17
2018-04-20T07:40:17.412Z,24.26
2018-04-20T07:40:58.028Z,24.35
2018-04-20T07:41:38.606Z,24.36
2018-04-20T07:42:19.134Z,24.4
2018-04-20T07:42:59.714Z,24.53
2018-04-20T07:43:40.307Z,24.6
2018-04-20T07:44:20.889Z,24.63
2018-04-20T07:45:01.498Z,24.66
2018-04-20T07:45:42.090Z,24.65
2018-04-20T07:46:22.678Z,24.76
2018-04-20T07:47:03.251Z,24.73
2018-04-20T07:47:43.861Z,24.81
2018-04-20T07:48:24.442Z,24.86
2018-04-20T07:49:04.992Z,24.91
2018-04-20T07:49:45.595Z,24.93
2018-04-20T07:50:26.155Z,24.98
2018-04-20T07:51:06.737Z,24.89
2018-04-20T07:51:47.305Z,24.96
2018-04-20T07:52:27.872Z,24.88
2018-04-20T07:53:08.449Z,24.86
2018-04-20T07:53:49.009Z,24.85
2018-04-20T07:54:29.570Z,24.85
2018-04-20T07:55:10.145Z,24.85
2018-04-20T07:55:50.745Z,24.88
2018-04-20T07:56:31.347Z,24.81
2018-04-20T07:57:11.929Z,24.81
2018-04-20T07:57:52.504Z,24.85
2018-04-20T07:58:33.070Z,24.85
2018-04-20T07:59:13.642Z,24.85
2018-04-20T07:59:54.227Z,24.86
2018-04-20T08:00:34.780Z,24.76
2018-04-20T08:01:15.458Z,24.85
2018-04-20T08:01:56.053Z,24.84
2018-04-20T08:02:36.654Z,24.76
2018-04-20T08:03:17.215Z,24.76
2018-04-20T08:03:57.778Z,24.7
2018-04-20T08:04:38.400Z,24.69
2018-04-20T08:05:19.047Z,24.61
2018-04-20T08:05:59.633Z,24.61
2018-04-20T08:06:40.207Z,24.6
2018-04-20T08:07:20.770Z,24.63
2018-04-20T08:08:01.382Z,24.58
2018-04-20T08:08:41.961Z,24.61
2018-04-20T08:09:22.516Z,24.58
2018-04-20T08:10:03.095Z,24.53
2018-04-20T08:10:43.651Z,24.51
2018-04-20T08:11:24.235Z,24.53
2018-04-20T08:12:04.820Z,24.39
2018-04-20T08:12:45.388Z,24.48
2018-04-20T08:13:25.994Z,24.48
2018-04-20T08:14:06.566Z,24.3
2018-04-20T08:14:47.134Z,24.29
2018-04-20T08:15:27.676Z,24.42
2018-04-20T08:16:08.353Z,24.42
2018-04-20T08:16:48.911Z,24.42
2018-04-20T08:17:29.502Z,24.58
2018-04-20T08:18:10.062Z,24.57
2018-04-20T08:18:50.629Z,24.55
2018-04-20T08:19:31.186Z,24.65
2018-04-20T08:20:12.133Z,24.6
2018-04-20T08:20:52.668Z,24.69
2018-04-20T08:21:33.243Z,24.78
2018-04-20T08:22:13.800Z,24.73
2018-04-20T08:22:54.356Z,24.74
2018-04-20T08:23:34.930Z,24.84
2018-04-20T08:24:15.503Z,24.86
2018-04-20T08:24:56.083Z,24.73
2018-04-20T08:25:36.683Z,24.8
2018-04-20T08:26:17.266Z,24.8
2018-04-20T08:26:57.844Z,24.84
2018-04-20T08:27:38.416Z,24.85
2018-04-20T08:28:18.977Z,24.85
2018-04-20T08:28:59.588Z,24.77
2018-04-20T08:29:40.181Z,24.73
2018-04-20T08:30:20.753Z,24.69
2018-04-20T08:31:01.320Z,24.69
2018-04-20T08:31:41.890Z,24.57
2018-04-20T08:32:22.444Z,24.61
2018-04-20T08:33:03.029Z,24.6
2018-04-20T08:33:43.623Z,24.63
2018-04-20T08:34:24.213Z,24.57
2018-04-20T08:35:04.824Z,24.65
2018-04-20T08:35:45.472Z,24.7
2018-04-20T08:36:26.632Z,24.74
2018-04-20T08:37:07.796Z,24.91
2018-04-20T08:37:48.365Z,24.7
2018-04-20T08:38:28.950Z,24.8
2018-04-20T08:39:09.548Z,24.86
2018-04-20T08:39:50.130Z,24.81
2018-04-20T08:40:30.668Z,24.96
2018-04-20T08:41:11.229Z,25.03
2018-04-20T08:41:51.792Z,24.99
2018-04-20T08:42:32.317Z,25.07
2018-04-20T08:43:12.889Z,25.08
2018-04-20T08:43:53.475Z,25.08
2018-04-20T08:44:34.110Z,25.14
2018-04-20T08:45:14.672Z,25.17
2018-04-20T08:45:55.392Z,25.17
2018-04-20T08:46:35.946Z,25.17